createdAt,value
2023-04-20T00:02:05.643Z,7.79
2023-04-20T00:05:09.281Z,7.78
2023-04-20T00:08:12.017Z,7.79
2023-04-20T00:11:14.752Z,7.88
2023-04-20T00:14:17.470Z,8.00
2023-04-20T00:17:20.010Z,8.00
2023-04-20T00:20:23.102Z,8.17
2023-04-20T00:23:25.943Z,8.16
2023-04-20T00:26:28.426Z,8.17
2023-04-20T00:29:31.745Z,8.20
2023-04-20T00:32:34.431Z,8.16
2023-04-20T00:35:37.004Z,8.15
2023-04-20T00:38:39.522Z,8.08
2023-04-20T00:41:42.141Z,8.05
2023-04-20T00:44:44.626Z,7.96
2023-04-20T00:47:47.467Z,7.91
2023-04-20T00:50:50.816Z,7.79
2023-04-20T00:53:53.462Z,7.66
2023-04-20T00:56:58.047Z,7.49
2023-04-20T01:00:01.545Z,7.43
2023-04-20T01:03:05.211Z,7.40
2023-04-20T01:06:09.315Z,7.38
2023-04-20T01:09:12.640Z,7.36
2023-04-20T01:12:15.638Z,7.31
2023-04-20T01:15:19.743Z,7.28
2023-04-20T01:18:22.939Z,7.30
2023-04-20T01:21:25.656Z,7.27
2023-04-20T01:24:28.456Z,7.29
2023-04-20T01:27:31.400Z,7.27
2023-04-20T01:30:37.955Z,7.29
2023-04-20T01:33:43.277Z,7.20
2023-04-20T01:36:46.035Z,7.16
2023-04-20T01:39:48.725Z,7.08
2023-04-20T01:42:51.337Z,7.12
2023-04-20T01:45:53.996Z,7.04
2023-04-20T01:48:56.526Z,6.91
2023-04-20T01:51:59.047Z,6.90
2023-04-20T01:55:01.522Z,6.80
2023-04-20T01:58:04.084Z,6.68
2023-04-20T02:01:06.784Z,6.59
2023-04-20T02:04:09.650Z,6.55
2023-04-20T02:07:12.174Z,6.47
2023-04-20T02:10:14.828Z,6.44
2023-04-20T02:13:21.551Z,6.43
2023-04-20T02:16:24.144Z,6.41
2023-04-20T02:19:26.765Z,6.36
2023-04-20T02:22:29.466Z,6.23
2023-04-20T02:25:32.047Z,6.20
2023-04-20T02:28:34.716Z,6.27
2023-04-20T02:31:40.031Z,6.30
2023-04-20T02:34:42.909Z,6.21
2023-04-20T02:37:45.871Z,6.20
2023-04-20T02:40:49.473Z,6.18
2023-04-20T02:43:53.249Z,6.13
2023-04-20T02:46:55.925Z,6.11
2023-04-20T02:50:00.882Z,6.11
2023-04-20T02:53:03.582Z,6.08
2023-04-20T02:56:09.406Z,6.10
2023-04-20T02:59:19.573Z,6.05
2023-04-20T03:02:43.025Z,6.02
2023-04-20T03:05:45.764Z,6.00
2023-04-20T03:08:49.117Z,5.95
2023-04-20T03:12:18.573Z,5.95
2023-04-20T03:15:39.968Z,5.90
2023-04-20T03:18:57.791Z,5.88
2023-04-20T03:22:00.557Z,5.83
2023-04-20T03:25:03.104Z,5.87
2023-04-20T03:28:37.716Z,5.82
2023-04-20T03:31:40.353Z,5.86
2023-04-20T03:34:44.429Z,5.87
2023-04-20T03:37:47.110Z,5.86
2023-04-20T03:40:49.611Z,5.84
2023-04-20T03:43:52.368Z,5.81
2023-04-20T03:46:54.848Z,5.79
2023-04-20T03:49:57.688Z,5.81
2023-04-20T03:53:00.417Z,5.75
2023-04-20T03:56:03.368Z,5.73
2023-04-20T03:59:06.856Z,5.77
2023-04-20T04:02:10.998Z,5.80
2023-04-20T04:05:14.001Z,5.77
2023-04-20T04:08:16.522Z,5.83
2023-04-20T04:11:19.267Z,5.84
2023-04-20T04:14:22.563Z,5.90
2023-04-20T04:17:25.259Z,5.91
2023-04-20T04:20:29.662Z,5.96
2023-04-20T04:23:32.975Z,6.07
2023-04-20T04:26:56.427Z,6.09
2023-04-20T04:30:03.599Z,6.10
2023-04-20T04:33:10.209Z,6.16
2023-04-20T04:36:15.402Z,6.23
2023-04-20T04:39:18.454Z,6.30
2023-04-20T04:42:30.240Z,6.38
2023-04-20T04:45:43.331Z,6.48
2023-04-20T04:48:48.000Z,6.66
2023-04-20T04:51:50.807Z,6.77
2023-04-20T04:54:53.448Z,6.85
2023-04-20T04:57:57.321Z,6.98
2023-04-20T05:00:59.896Z,7.14
2023-04-20T05:04:02.759Z,7.23
2023-04-20T05:07:05.514Z,7.34
2023-04-20T05:10:08.616Z,7.44
2023-04-20T05:13:11.390Z,7.73
2023-04-20T05:16:14.129Z,7.81
2023-04-20T05:19:17.354Z,7.94
2023-04-20T05:22:20.726Z,8.10
2023-04-20T05:25:23.594Z,8.25
2023-04-20T05:28:26.916Z,8.38
2023-04-20T05:31:31.011Z,8.47
2023-04-20T05:34:34.118Z,8.68
2023-04-20T05:37:36.660Z,8.99
2023-04-20T05:40:39.242Z,9.26
2023-04-20T05:43:42.041Z,9.44
2023-04-20T05:46:44.643Z,9.61
2023-04-20T05:49:47.526Z,9.84
2023-04-20T05:52:51.170Z,10.00
2023-04-20T05:55:53.723Z,10.13
2023-04-20T05:58:57.204Z,10.23
2023-04-20T06:02:01.019Z,10.39
2023-04-20T06:05:04.375Z,10.43
2023-04-20T06:08:07.261Z,10.46
2023-04-20T06:11:09.971Z,10.39
2023-04-20T06:14:14.449Z,10.32
2023-04-20T06:17:16.998Z,10.45
2023-04-20T06:20:20.496Z,10.59
2023-04-20T06:23:23.193Z,10.66
2023-04-20T06:26:26.246Z,10.78
2023-04-20T06:29:29.106Z,11.00
2023-04-20T06:32:31.810Z,11.19
2023-04-20T06:35:34.389Z,11.29
2023-04-20T06:38:37.081Z,11.36
2023-04-20T06:41:39.650Z,11.40
2023-04-20T06:44:42.918Z,11.54
2023-04-20T06:47:45.798Z,11.67
2023-04-20T06:50:51.548Z,11.78
2023-04-20T06:53:54.643Z,11.78
2023-04-20T06:56:57.606Z,11.93
2023-04-20T07:00:02.689Z,12.04
2023-04-20T07:03:06.411Z,12.20
2023-04-20T07:06:11.161Z,12.23
2023-04-20T07:09:16.813Z,12.37
2023-04-20T07:12:21.343Z,12.42
2023-04-20T07:15:24.249Z,12.58
2023-04-20T07:18:26.815Z,12.70
2023-04-20T07:21:30.776Z,12.58
2023-04-20T07:24:34.086Z,12.79
2023-04-20T07:27:38.905Z,12.93
2023-04-20T07:30:41.470Z,12.89
2023-04-20T07:33:44.751Z,12.97
2023-04-20T07:36:47.496Z,13.12
2023-04-20T07:39:53.238Z,13.27
2023-04-20T07:42:55.947Z,13.42
2023-04-20T07:45:58.512Z,13.54
2023-04-20T07:49:01.166Z,13.65
2023-04-20T07:52:15.789Z,13.57
2023-04-20T07:55:19.903Z,13.52
2023-04-20T07:58:22.559Z,13.68
2023-04-20T08:01:26.184Z,13.67
2023-04-20T08:04:28.864Z,13.92
2023-04-20T08:07:31.840Z,14.06
2023-04-20T08:10:35.164Z,14.14
2023-04-20T08:13:37.844Z,14.25
2023-04-20T08:16:40.588Z,14.29
2023-04-20T08:19:44.953Z,14.32
2023-04-20T08:22:49.365Z,14.41
2023-04-20T08:25:51.918Z,14.59
2023-04-20T08:28:54.488Z,14.75
2023-04-20T08:31:58.432Z,14.81
2023-04-20T08:35:01.355Z,14.91
2023-04-20T08:38:04.067Z,14.96
2023-04-20T08:41:06.756Z,14.90
2023-04-20T08:44:09.610Z,15.16
2023-04-20T08:47:13.045Z,15.14
2023-04-20T08:50:16.599Z,15.30
2023-04-20T08:53:20.738Z,15.28
2023-04-20T08:56:37.850Z,15.47
2023-04-20T08:59:40.636Z,15.58
2023-04-20T09:02:54.669Z,15.53
2023-04-20T09:05:57.794Z,15.32
2023-04-20T09:09:00.319Z,15.60
2023-04-20T09:12:08.092Z,15.68
2023-04-20T09:15:11.605Z,15.87
2023-04-20T09:18:16.083Z,15.97
2023-04-20T09:21:18.655Z,15.92
2023-04-20T09:24:24.017Z,16.07
2023-04-20T09:27:26.573Z,16.18
2023-04-20T09:30:47.423Z,16.24
2023-04-20T09:34:00.718Z,16.47
2023-04-20T09:37:07.255Z,16.52
2023-04-20T09:40:10.875Z,16.64
2023-04-20T09:43:19.106Z,16.66
2023-04-20T09:46:22.500Z,16.52
2023-04-20T09:49:26.177Z,16.41
2023-04-20T09:52:29.679Z,16.62
2023-04-20T09:55:32.715Z,16.83
2023-04-20T09:58:36.924Z,17.00
2023-04-20T10:01:40.638Z,17.32
2023-04-20T10:04:57.047Z,17.40
2023-04-20T10:08:00.871Z,17.28
2023-04-20T10:11:03.518Z,17.40
2023-04-20T10:14:19.648Z,17.47
2023-04-20T10:17:33.092Z,17.53
2023-04-20T10:20:35.912Z,17.68
2023-04-20T10:23:51.322Z,17.97
2023-04-20T10:26:53.909Z,18.09
2023-04-20T10:29:56.509Z,18.10
2023-04-20T10:33:11.484Z,18.15
2023-04-20T10:36:23.489Z,17.96
2023-04-20T10:39:27.617Z,18.42
2023-04-20T10:42:41.862Z,18.50
2023-04-20T10:45:44.625Z,18.44
2023-04-20T10:49:05.029Z,18.48
2023-04-20T10:52:07.703Z,18.66
2023-04-20T10:55:21.340Z,18.22
2023-04-20T10:58:25.828Z,18.21
2023-04-20T11:01:33.922Z,18.33
2023-04-20T11:04:37.547Z,18.50
2023-04-20T11:07:56.161Z,18.77
2023-04-20T11:10:58.797Z,19.12
2023-04-20T11:14:11.855Z,18.78
2023-04-20T11:17:14.473Z,19.06
2023-04-20T11:20:18.693Z,19.18
2023-04-20T11:23:22.743Z,19.26
2023-04-20T11:26:35.432Z,18.83
2023-04-20T11:29:39.850Z,19.31
2023-04-20T11:32:43.939Z,19.95
2023-04-20T11:35:46.687Z,19.28
2023-04-20T11:38:49.775Z,19.42
2023-04-20T11:41:53.033Z,19.07
2023-04-20T11:44:56.498Z,18.65
2023-04-20T11:48:00.156Z,19.91
2023-04-20T11:51:04.057Z,19.50
2023-04-20T11:54:07.561Z,20.24
2023-04-20T11:57:10.292Z,20.81
2023-04-20T12:00:14.104Z,20.07
2023-04-20T12:03:16.923Z,20.26
2023-04-20T12:06:20.537Z,19.92
2023-04-20T12:09:23.258Z,19.81
2023-04-20T12:12:26.767Z,19.65
2023-04-20T12:15:29.417Z,21.08
2023-04-20T12:18:31.981Z,22.07
2023-04-20T12:21:34.753Z,22.84
2023-04-20T12:24:38.515Z,23.38
2023-04-20T12:27:41.189Z,23.47
2023-04-20T12:30:44.128Z,24.07
2023-04-20T12:33:46.981Z,22.86
2023-04-20T12:36:49.509Z,23.39
2023-04-20T12:39:52.357Z,23.41
2023-04-20T12:42:55.063Z,21.21
2023-04-20T12:45:57.556Z,20.80
2023-04-20T12:49:00.208Z,20.47
2023-04-20T12:52:02.885Z,22.02
2023-04-20T12:55:07.472Z,23.31
2023-04-20T12:58:10.204Z,24.49
2023-04-20T13:01:12.863Z,25.22
2023-04-20T13:04:16.391Z,23.42
2023-04-20T13:07:19.272Z,24.02
2023-04-20T13:10:21.825Z,24.55
2023-04-20T13:13:24.378Z,24.61
2023-04-20T13:16:27.118Z,25.10
2023-04-20T13:19:30.771Z,26.77
2023-04-20T13:22:34.653Z,26.78
2023-04-20T13:25:38.997Z,25.50
2023-04-20T13:28:41.730Z,27.00
2023-04-20T13:31:44.634Z,25.47
2023-04-20T13:34:47.301Z,26.53
2023-04-20T13:37:50.066Z,27.51
2023-04-20T13:40:52.655Z,27.88
2023-04-20T13:43:56.494Z,28.00
2023-04-20T13:46:59.103Z,27.99
2023-04-20T13:50:03.672Z,28.45
2023-04-20T13:53:06.312Z,28.12
2023-04-20T13:56:08.942Z,26.15
2023-04-20T13:59:12.864Z,27.54
2023-04-20T14:02:15.531Z,27.16
2023-04-20T14:05:18.646Z,27.86
2023-04-20T14:08:23.350Z,27.06
2023-04-20T14:11:26.011Z,26.91
2023-04-20T14:14:28.614Z,27.27
2023-04-20T14:17:31.718Z,28.16
2023-04-20T14:20:34.912Z,26.91
2023-04-20T14:23:37.659Z,27.47
2023-04-20T14:26:41.260Z,27.92
2023-04-20T14:29:44.114Z,27.11
2023-04-20T14:32:58.101Z,26.04
2023-04-20T14:36:00.882Z,26.34
2023-04-20T14:39:03.901Z,26.78
2023-04-20T14:42:07.730Z,28.02
2023-04-20T14:45:11.685Z,27.88
2023-04-20T14:48:14.230Z,25.78
2023-04-20T14:51:19.056Z,26.91
2023-04-20T14:54:21.716Z,27.48
2023-04-20T14:57:24.279Z,26.87
2023-04-20T15:00:30.214Z,25.96
2023-04-20T15:03:33.156Z,26.45
2023-04-20T15:06:36.072Z,27.21
2023-04-20T15:09:38.818Z,26.79
2023-04-20T15:12:41.364Z,25.40
2023-04-20T15:15:48.766Z,24.96
2023-04-20T15:18:54.559Z,24.50
2023-04-20T15:21:57.286Z,24.13
2023-04-20T15:24:59.901Z,24.32
2023-04-20T15:28:02.353Z,24.11
2023-04-20T15:31:07.844Z,22.14
2023-04-20T15:34:11.441Z,20.72
2023-04-20T15:37:13.906Z,19.42
2023-04-20T15:40:17.919Z,19.39
2023-04-20T15:43:20.585Z,19.18
2023-04-20T15:46:25.414Z,18.96
2023-04-20T15:49:28.368Z,18.81
2023-04-20T15:52:32.514Z,18.81
2023-04-20T15:55:38.871Z,18.97
2023-04-20T15:58:42.001Z,19.07
2023-04-20T16:01:44.758Z,19.12
2023-04-20T16:04:47.737Z,19.06
2023-04-20T16:07:50.512Z,19.01
2023-04-20T16:10:54.912Z,18.81
2023-04-20T16:13:57.941Z,18.75
2023-04-20T16:17:03.361Z,18.71
2023-04-20T16:20:06.624Z,18.62
2023-04-20T16:23:09.682Z,18.43
2023-04-20T16:26:12.204Z,18.38
2023-04-20T16:29:14.833Z,18.33
2023-04-20T16:32:17.307Z,18.12
2023-04-20T16:35:21.253Z,17.84
2023-04-20T16:38:24.116Z,17.54
2023-04-20T16:41:27.175Z,17.40
2023-04-20T16:44:29.904Z,17.18
2023-04-20T16:47:32.526Z,16.96
2023-04-20T16:50:35.540Z,16.91
2023-04-20T16:53:38.071Z,16.86
2023-04-20T16:56:40.858Z,16.90
2023-04-20T16:59:45.284Z,16.90
2023-04-20T17:02:50.565Z,16.87
2023-04-20T17:05:53.171Z,16.88
2023-04-20T17:08:57.643Z,16.81
2023-04-20T17:12:01.483Z,16.68
2023-04-20T17:15:04.438Z,16.60
2023-04-20T17:18:07.709Z,16.61
2023-04-20T17:21:10.306Z,16.53
2023-04-20T17:24:13.314Z,16.51
2023-04-20T17:27:16.098Z,16.54
2023-04-20T17:30:18.901Z,16.46
2023-04-20T17:33:21.702Z,16.36
2023-04-20T17:36:24.259Z,16.29
2023-04-20T17:39:27.123Z,16.24
2023-04-20T17:42:29.800Z,16.28
2023-04-20T17:45:33.436Z,16.24
2023-04-20T17:48:36.159Z,16.20
2023-04-20T17:51:39.110Z,16.08
2023-04-20T17:54:41.638Z,15.87
2023-04-20T17:57:44.358Z,15.89
2023-04-20T18:00:47.726Z,15.83
2023-04-20T18:03:50.808Z,15.61
2023-04-20T18:06:53.610Z,15.53
2023-04-20T18:09:56.123Z,15.44
2023-04-20T18:12:58.926Z,15.38
2023-04-20T18:16:06.904Z,15.22
2023-04-20T18:19:09.745Z,14.98
2023-04-20T18:22:12.662Z,14.94
2023-04-20T18:25:17.049Z,14.83
2023-04-20T18:28:20.305Z,14.77
2023-04-20T18:31:23.011Z,14.69
2023-04-20T18:34:30.068Z,14.66
2023-04-20T18:37:32.976Z,14.53
2023-04-20T18:40:35.685Z,14.44
2023-04-20T18:43:38.500Z,14.31
2023-04-20T18:46:42.208Z,14.22
2023-04-20T18:49:45.261Z,14.08
2023-04-20T18:52:48.026Z,13.99
2023-04-20T18:55:52.967Z,13.86
2023-04-20T18:58:57.972Z,13.77
2023-04-20T19:02:01.010Z,13.79
2023-04-20T19:05:04.556Z,13.80
2023-04-20T19:08:07.436Z,13.72
2023-04-20T19:11:10.377Z,13.68
2023-04-20T19:14:13.309Z,13.60
2023-04-20T19:17:16.082Z,13.57
2023-04-20T19:20:19.158Z,13.47
2023-04-20T19:23:22.208Z,13.40
2023-04-20T19:26:25.203Z,13.33
2023-04-20T19:29:29.534Z,13.19
2023-04-20T19:32:33.662Z,13.12
2023-04-20T19:35:36.599Z,13.04
2023-04-20T19:38:39.725Z,13.00
2023-04-20T19:41:42.492Z,12.96
2023-04-20T19:44:45.578Z,12.95
2023-04-20T19:47:48.430Z,12.92
2023-04-20T19:50:51.798Z,12.89
2023-04-20T19:53:54.334Z,12.80
2023-04-20T19:56:57.747Z,12.69
2023-04-20T20:00:00.485Z,12.59
2023-04-20T20:03:04.160Z,12.43
2023-04-20T20:06:07.812Z,12.32
2023-04-20T20:09:10.907Z,12.18
2023-04-20T20:12:13.778Z,12.14
2023-04-20T20:15:16.375Z,11.99
2023-04-20T20:18:20.650Z,11.96
2023-04-20T20:21:23.180Z,11.90
2023-04-20T20:24:26.046Z,11.80
2023-04-20T20:27:28.639Z,11.66
2023-04-20T20:30:32.267Z,11.58
2023-04-20T20:33:34.854Z,11.53
2023-04-20T20:36:37.562Z,11.47
2023-04-20T20:39:40.610Z,11.30
2023-04-20T20:42:45.228Z,11.17
2023-04-20T20:45:47.963Z,11.11
2023-04-20T20:48:50.613Z,11.08
2023-04-20T20:51:53.384Z,10.98
2023-04-20T20:54:55.902Z,11.01
2023-04-20T20:57:58.464Z,11.05
2023-04-20T21:01:01.081Z,11.03
2023-04-20T21:04:04.690Z,11.10
2023-04-20T21:07:07.409Z,11.09
2023-04-20T21:10:11.997Z,11.15
2023-04-20T21:13:15.836Z,11.23
2023-04-20T21:16:18.425Z,11.34
2023-04-20T21:19:21.632Z,11.41
2023-04-20T21:22:24.914Z,11.42
2023-04-20T21:25:27.462Z,11.48
2023-04-20T21:28:29.905Z,11.54
2023-04-20T21:31:33.295Z,11.65
2023-04-20T21:34:35.950Z,11.74
2023-04-20T21:37:38.530Z,11.76
2023-04-20T21:40:41.042Z,11.73
2023-04-20T21:43:43.796Z,11.82
2023-04-20T21:46:46.311Z,11.82
2023-04-20T21:49:48.736Z,11.85
2023-04-20T21:52:51.240Z,11.86
2023-04-20T21:55:53.738Z,11.85
2023-04-20T21:58:58.266Z,11.84
2023-04-20T22:02:00.816Z,11.80
2023-04-20T22:05:04.484Z,11.79
2023-04-20T22:08:07.576Z,11.75
2023-04-20T22:11:10.537Z,11.74
2023-04-20T22:14:13.273Z,11.70
2023-04-20T22:17:15.944Z,11.67
2023-04-20T22:20:19.491Z,11.64
2023-04-20T22:23:22.030Z,11.59
2023-04-20T22:26:24.426Z,11.56
2023-04-20T22:29:26.877Z,11.51
2023-04-20T22:32:29.455Z,11.47
2023-04-20T22:35:31.851Z,11.40
2023-04-20T22:38:37.957Z,11.37
2023-04-20T22:41:40.444Z,11.29
2023-04-20T22:44:43.026Z,11.23
2023-04-20T22:47:46.790Z,11.18
2023-04-20T22:50:49.290Z,11.18
2023-04-20T22:53:51.811Z,11.13
2023-04-20T22:56:54.261Z,11.08
2023-04-20T22:59:56.875Z,11.07
2023-04-20T23:02:59.790Z,11.08
2023-04-20T23:06:03.417Z,11.06
2023-04-20T23:09:08.213Z,11.01
2023-04-20T23:12:11.793Z,10.95
2023-04-20T23:15:14.307Z,10.86
2023-04-20T23:18:16.833Z,10.78
2023-04-20T23:21:19.358Z,10.70
2023-04-20T23:24:21.926Z,10.64
2023-04-20T23:27:24.528Z,10.51
2023-04-20T23:30:27.129Z,10.42
2023-04-20T23:33:29.797Z,10.31
2023-04-20T23:36:32.618Z,10.26
2023-04-20T23:39:38.425Z,10.21
2023-04-20T23:42:41.165Z,10.14
2023-04-20T23:45:43.715Z,10.07
2023-04-20T23:48:46.258Z,10.03
2023-04-20T23:51:48.841Z,9.99
2023-04-20T23:54:51.347Z,9.94
2023-04-20T23:57:53.892Z,9.95
